Time;durP1;ratioP1;P1;durP2;ratioP2;P2;SDS_P1;SDS_P2;PMS_P1;PMS_P2;Temp;Humidity;BMP_temperature;BMP_pressure;BME280_temperature;BME280_humidity;BME280_pressure;Samples;Min_cycle;Max_cycle;Signal;HPM_P1;HPM_P2
2022/06/02 00:01:28;;;;;;;5.25;3.90;;;;;;;24.30;53.64;100758.48;1759118;80;21595;-78
2022/06/02 00:04:20;;;;;;;4.72;3.83;;;;;;;24.30;53.66;100759.05;1774329;80;21100;-78
2022/06/02 00:07:00;;;;;;;5.00;3.85;;;;;;;24.28;53.65;100761.34;1773686;79;21029;-78
2022/06/02 00:09:51;;;;;;;5.80;4.15;;;;;;;24.29;53.67;100759.63;1774353;80;21010;-78
2022/06/02 00:12:49;;;;;;;6.55;4.08;;;;;;;24.29;53.65;100761.59;1773873;80;21061;-79
2022/06/02 00:15:28;;;;;;;6.22;3.77;;;;;;;24.28;53.67;100762.73;1773736;80;21076;-77
2022/06/02 00:18:18;;;;;;;6.17;4.00;;;;;;;24.27;53.66;100757.78;1773518;80;21166;-78
2022/06/02 00:20:52;;;;;;;6.67;4.27;;;;;;;24.28;53.69;100759.38;1773413;80;21100;-78
2022/06/02 00:23:44;;;;;;;5.95;4.40;;;;;;;24.27;53.71;100759.75;1772824;80;21049;-78
2022/06/02 00:26:52;;;;;;;5.55;4.50;;;;;;;24.28;53.72;100757.18;1773083;79;21025;-78
2022/06/02 00:29:30;;;;;;;6.03;4.20;;;;;;;24.26;53.70;100754.77;1773450;80;21563;-78
2022/06/02 00:32:17;;;;;;;5.30;3.90;;;;;;;24.26;53.71;100754.77;1773680;80;20990;-78
2022/06/02 00:35:17;;;;;;;7.70;3.87;;;;;;;24.27;53.72;100760.56;1773904;80;21582;-77
2022/06/02 00:37:57;;;;;;;6.20;4.40;;;;;;;24.27;53.72;100762.53;1774512;80;21032;-77
2022/06/02 00:40:25;;;;;;;4.78;3.83;;;;;;;24.26;53.73;100752.55;1774074;80;20969;-78
2022/06/02 00:43:32;;;;;;;6.12;4.37;;;;;;;24.26;53.72;100751.98;1774220;80;21002;-78
2022/06/02 00:46:07;;;;;;;6.22;4.15;;;;;;;24.25;53.74;100743.40;1773835;80;21755;-78
2022/06/02 00:49:01;;;;;;;6.67;4.10;;;;;;;24.26;53.74;100745.61;1773979;80;21057;-77
2022/06/02 00:52:03;;;;;;;5.50;4.20;;;;;;;24.26;53.74;100733.09;1774022;79;21104;-78
2022/06/02 00:58:02;;;;;;;6.12;4.05;;;;;;;24.25;53.75;100738.41;1773986;80;21081;-77
2022/06/02 01:00:45;;;;;;;6.08;4.60;;;;;;;24.25;53.76;100737.84;1774399;80;21022;-78
2022/06/02 01:03:22;;;;;;;6.08;4.00;;;;;;;24.25;53.75;100743.97;1773814;80;20982;-78
2022/06/02 01:06:10;;;;;;;7.05;4.50;;;;;;;24.25;53.77;100732.85;1774328;79;21658;-78
2022/06/02 01:09:07;;;;;;;4.47;3.90;;;;;;;24.24;53.79;100726.48;1774001;80;21045;-78
2022/06/02 01:11:47;;;;;;;5.85;4.10;;;;;;;24.24;53.79;100720.10;1774393;80;21017;-78
2022/06/02 01:14:36;;;;;;;7.35;3.90;;;;;;;24.23;53.79;100724.84;1774089;79;21025;-78
2022/06/02 01:17:22;;;;;;;6.17;4.10;;;;;;;24.23;53.81;100729.02;1773898;79;20998;-77
2022/06/02 01:20:09;;;;;;;6.37;4.37;;;;;;;24.24;53.80;100724.27;1773105;80;21065;-78
2022/06/02 01:23:25;;;;;;;6.47;4.28;;;;;;;24.22;53.80;100719.08;1773647;80;21291;-78
2022/06/02 01:26:11;;;;;;;8.03;4.37;;;;;;;24.23;53.81;100717.89;1771329;80;21031;-77
2022/06/02 01:29:01;;;;;;;5.33;3.85;;;;;;;24.23;53.82;100722.06;1771421;80;21091;-78
2022/06/02 01:31:39;;;;;;;4.72;4.17;;;;;;;24.22;53.81;100721.04;1771242;80;21455;-77
2022/06/02 01:34:17;;;;;;;5.37;3.80;;;;;;;24.22;53.81;100723.81;1751207;80;21445;-77
2022/06/02 01:37:17;;;;;;;6.42;4.12;;;;;;;24.22;53.83;100721.04;1770129;80;21016;-78
2022/06/02 01:39:52;;;;;;;5.15;4.00;;;;;;;24.23;53.85;100724.84;1771774;80;21407;-78
2022/06/02 01:42:48;;;;;;;6.92;4.45;;;;;;;24.22;53.85;100721.04;1771069;80;21181;-77
2022/06/02 01:45:41;;;;;;;4.70;3.95;;;;;;;24.22;53.85;100719.08;1771170;80;21015;-78
2022/06/02 01:48:31;;;;;;;7.42;4.45;;;;;;;24.23;53.86;100722.67;1770970;80;21019;-78
2022/06/02 01:51:09;;;;;;;4.92;3.77;;;;;;;24.21;53.84;100715.23;1761911;80;21031;-78
2022/06/02 01:54:04;;;;;;;6.33;3.92;;;;;;;24.21;53.86;100717.45;1756203;81;21474;-78
2022/06/02 01:57:05;;;;;;;5.72;4.30;;;;;;;24.22;53.86;100715.48;1756842;80;21031;-78
2022/06/02 01:59:56;;;;;;;6.00;3.87;;;;;;;24.20;53.87;100711.64;1756207;80;21007;-77
2022/06/02 02:02:52;;;;;;;6.00;4.15;;;;;;;24.21;53.86;100716.62;1756546;80;21050;-77
2022/06/02 02:05:45;;;;;;;5.05;4.30;;;;;;;24.21;53.87;100713.27;1756304;81;20992;-78
2022/06/02 02:08:37;;;;;;;8.28;4.35;;;;;;;24.20;53.87;100711.64;1756393;80;21462;-78
2022/06/02 02:11:37;;;;;;;6.30;4.20;;;;;;;24.21;53.88;100717.45;1756597;80;21181;-78
2022/06/02 02:14:30;;;;;;;5.00;4.00;;;;;;;24.20;53.87;100718.59;1756581;81;21008;-78
2022/06/02 02:17:37;;;;;;;5.60;4.10;;;;;;;24.19;53.87;100726.69;1756194;81;21050;-78
2022/06/02 02:20:43;;;;;;;5.85;4.30;;;;;;;24.20;53.88;100727.51;1756937;81;21051;-77
2022/06/02 02:23:23;;;;;;;7.83;4.03;;;;;;;24.19;53.85;100733.64;1768272;80;21043;-78
2022/06/02 02:26:01;;;;;;;5.33;4.08;;;;;;;24.20;53.87;100740.83;1782723;80;21020;-78
2022/06/02 02:29:19;;;;;;;6.97;4.12;;;;;;;24.19;53.89;100737.02;1782526;79;20965;-77
2022/06/02 02:32:41;;;;;;;5.45;3.95;;;;;;;24.19;53.90;100735.63;1782692;80;21006;-78
2022/06/02 02:35:27;;;;;;;7.03;5.15;;;;;;;24.19;53.89;100737.02;1782448;79;20982;-78
2022/06/02 02:38:13;;;;;;;5.55;3.77;;;;;;;24.18;53.90;100736.21;1782666;79;21622;-78
2022/06/02 02:40:48;;;;;;;6.55;4.00;;;;;;;24.19;53.89;100730.86;1782050;80;21177;-78
2022/06/02 02:43:23;;;;;;;5.55;3.80;;;;;;;24.17;53.91;100723.46;1782382;79;21076;-78
2022/06/02 02:45:55;;;;;;;7.83;4.35;;;;;;;24.18;53.91;100733.43;1782117;79;21052;-78
2022/06/02 02:48:35;;;;;;;6.83;4.12;;;;;;;24.18;53.92;100722.89;1782536;79;21083;-77
2022/06/02 02:51:05;;;;;;;;;;;;;;;24.18;53.95;100722.89;1788066;79;21028;-77
2022/06/02 02:53:44;;;;;;;5.72;4.12;;;;;;;24.19;53.91;100722.52;1787948;79;21949;-78
2022/06/02 02:56:25;;;;;;;6.33;3.80;;;;;;;24.17;53.93;100722.07;1787871;80;21535;-77
2022/06/02 02:59:09;;;;;;;5.83;4.05;;;;;;;24.18;53.95;100723.70;1787757;79;21561;-78
2022/06/02 03:02:03;;;;;;;5.65;4.15;;;;;;;24.18;53.93;100727.05;1769138;78;20993;-78
2022/06/02 03:04:56;;;;;;;5.58;4.12;;;;;;;24.18;53.94;100733.43;1788179;80;21020;-78
2022/06/02 03:07:22;;;;;;;8.33;4.30;;;;;;;24.16;53.92;100727.39;1786219;80;21174;-77
2022/06/02 03:10:03;;;;;;;5.78;3.92;;;;;;;24.18;53.92;100728.45;1788252;79;21008;-77
2022/06/02 03:12:54;;;;;;;7.40;4.37;;;;;;;24.18;53.92;100722.89;1775452;80;21633;-78
2022/06/02 03:15:26;;;;;;;5.42;3.90;;;;;;;24.18;53.91;100724.27;1788244;80;21045;-78
2022/06/02 03:18:32;;;;;;;6.05;4.10;;;;;;;24.18;53.90;100726.48;1788155;80;21044;-78
2022/06/02 03:21:21;;;;;;;4.33;3.77;;;;;;;24.18;53.91;100723.70;1775289;80;21127;-78
2022/06/02 03:23:53;;;;;;;10.90;4.40;;;;;;;24.18;53.90;100720.11;1758680;80;21047;-77
2022/06/02 03:26:43;;;;;;;5.37;3.95;;;;;;;24.18;53.89;100724.27;1754827;81;21046;-78
2022/06/02 03:29:44;;;;;;;6.80;4.30;;;;;;;24.19;53.90;100732.86;1769652;80;21102;-77
2022/06/02 03:32:14;;;;;;;;;;;;;;;24.19;53.87;100738.42;1745819;79;21066;-78
2022/06/02 03:34:58;;;;;;;7.47;3.90;;;;;;;24.18;53.88;100744.55;1769221;79;21261;-78
2022/06/02 03:37:45;;;;;;;6.25;4.37;;;;;;;24.17;53.86;100747.09;1769968;79;21004;-77
2022/06/02 03:40:45;;;;;;;8.15;4.45;;;;;;;24.18;53.89;100766.79;1769690;79;21015;-78
2022/06/02 03:43:20;;;;;;;5.60;4.60;;;;;;;24.17;53.88;100767.94;1751808;80;21051;-78
2022/06/02 03:46:13;;;;;;;7.00;4.15;;;;;;;24.19;53.85;100771.77;1769564;79;21503;-77
2022/06/02 03:48:48;;;;;;;4.87;4.05;;;;;;;24.18;53.87;100766.79;1770163;79;22244;-78
2022/06/02 03:51:54;;;;;;;6.00;4.00;;;;;;;24.18;53.86;100765.97;1758621;80;20958;-78
2022/06/02 03:54:45;;;;;;;4.85;4.30;;;;;;;24.18;53.85;100771.53;1709738;83;21111;-78
2022/06/02 03:57:46;;;;;;;7.17;4.50;;;;;;;24.18;53.84;100773.73;1707328;84;21059;-77
2022/06/02 04:00:20;;;;;;;8.70;4.90;;;;;;;24.18;53.84;100775.13;1711584;81;21116;-77
2022/06/02 04:03:02;;;;;;;5.90;4.28;;;;;;;24.17;53.88;100774.89;1731878;82;21000;-77
2022/06/02 04:05:52;;;;;;;7.97;4.53;;;;;;;24.16;53.88;100775.22;1732805;82;21025;-77
2022/06/02 04:08:45;;;;;;;6.22;4.78;;;;;;;24.16;53.89;100781.59;1732651;82;21013;-78
2022/06/02 04:13:37;;;;;;;7.67;4.72;;;;;;;24.16;53.90;100778.81;1704825;82;21083;-77
2022/06/02 04:14:14;;;;;;;10.72;5.12;;;;;;;24.16;53.91;100782.17;1727993;82;21053;-78
2022/06/02 04:17:05;;;;;;;11.38;4.97;;;;;;;24.14;53.91;100777.72;1718648;82;21287;-78
2022/06/02 04:23:04;;;;;;;11.63;5.85;;;;;;;24.14;53.95;100782.50;1700397;83;21032;-78
2022/06/02 04:26:12;;;;;;;12.90;5.87;;;;;;;24.12;53.95;100784.22;1709722;83;21011;-78
2022/06/02 04:28:57;;;;;;;15.18;6.53;;;;;;;24.10;54.01;100781.56;1709553;82;21021;-78
2022/06/02 04:31:48;;;;;;;11.38;6.50;;;;;;;24.08;54.13;100781.07;1698114;83;21941;-79
2022/06/02 04:34:44;;;;;;;13.80;6.05;;;;;;;24.05;54.25;100790.10;1708495;82;21064;-79
2022/06/02 04:37:18;;;;;;;16.07;6.50;;;;;;;24.02;54.33;100795.75;1711235;82;21076;-79
2022/06/02 04:40:07;;;;;;;12.80;6.85;;;;;;;23.99;54.39;100788.67;1692950;84;21136;-79
2022/06/02 04:43:12;;;;;;;11.25;6.67;;;;;;;23.96;54.48;100791.57;1694929;84;21065;-79
2022/06/02 04:46:12;;;;;;;16.32;7.40;;;;;;;23.94;54.62;100798.03;1670776;82;21054;-80
2022/06/02 04:49:06;;;;;;;12.78;6.75;;;;;;;23.92;54.76;100796.76;1678222;83;21025;-77
2022/06/02 04:51:54;;;;;;;16.60;6.80;;;;;;;23.90;54.86;100792.10;1706737;83;21025;-80
2022/06/02 04:54:54;;;;;;;17.00;7.28;;;;;;;23.90;54.96;100791.53;1696400;82;20996;-80
2022/06/02 04:57:46;;;;;;;18.27;7.65;;;;;;;23.91;55.04;100794.55;1689118;83;21041;-79
2022/06/02 05:00:43;;;;;;;23.35;7.67;;;;;;;23.91;55.16;100790.95;1763660;80;21057;-77
2022/06/02 05:03:39;;;;;;;15.05;7.65;;;;;;;23.91;55.23;100793.16;1724517;81;21080;-78
2022/06/02 05:06:32;;;;;;;20.30;8.33;;;;;;;23.93;55.26;100793.62;1736143;81;21075;-77
2022/06/02 05:09:04;;;;;;;22.75;8.95;;;;;;;23.93;55.22;100797.78;1741977;82;21055;-79
2022/06/02 05:12:07;;;;;;;17.92;8.58;;;;;;;23.94;55.24;100798.60;1733720;82;21585;-79
2022/06/02 05:14:48;;;;;;;19.87;8.58;;;;;;;23.95;55.25;100801.05;1716943;82;21043;-78
2022/06/02 05:17:42;;;;;;;14.95;8.80;;;;;;;23.96;55.20;100798.52;1737544;80;21060;-77
2022/06/02 05:20:25;;;;;;;21.15;8.70;;;;;;;23.97;55.14;100802.11;1759863;80;21082;-79
2022/06/02 05:23:19;;;;;;;17.37;9.20;;;;;;;23.98;55.12;100805.11;1749106;80;21060;-76
2022/06/02 05:26:10;;;;;;;16.05;9.33;;;;;;;23.98;55.10;100798.16;1767594;80;21092;-77
2022/06/02 05:29:00;;;;;;;16.17;9.35;;;;;;;23.97;55.05;100802.11;1745668;80;21165;-77
2022/06/02 05:32:15;;;;;;;18.00;8.73;;;;;;;23.97;54.99;100806.28;1733204;80;21294;-77
2022/06/02 05:35:18;;;;;;;14.65;7.80;;;;;;;23.98;54.93;100807.88;1727349;80;21012;-78
2022/06/02 05:38:16;;;;;;;13.88;9.28;;;;;;;23.97;54.86;100806.28;1731178;80;21025;-79
2022/06/02 05:41:11;;;;;;;11.85;8.08;;;;;;;23.98;54.79;100806.49;1735070;80;21049;-84
2022/06/02 05:43:49;;;;;;;14.00;8.08;;;;;;;23.96;54.72;100801.30;1738926;80;21124;-79
2022/06/02 05:46:45;;;;;;;22.20;8.55;;;;;;;23.98;54.67;100803.72;1709045;80;21096;-79
2022/06/02 05:49:36;;;;;;;17.48;9.10;;;;;;;23.99;54.63;100806.16;1735117;80;21092;-80
2022/06/02 05:52:32;;;;;;;16.07;8.90;;;;;;;24.00;54.71;100803.63;1754639;79;21022;-78
2022/06/02 05:55:28;;;;;;;14.43;9.38;;;;;;;24.01;54.77;100803.88;1750787;80;21036;-79
2022/06/02 05:58:09;;;;;;;14.53;9.05;;;;;;;24.02;54.88;100803.27;1710634;81;21560;-79
2022/06/02 06:01:14;;;;;;;21.97;10.48;;;;;;;24.03;54.93;100810.46;1712503;81;21039;-77
2022/06/02 06:03:55;;;;;;;22.02;9.88;;;;;;;24.03;55.12;100814.05;1742679;81;21140;-78
2022/06/02 06:06:28;;;;;;;;;;;;;;;24.06;55.29;100812.58;1717506;81;21106;-82
2022/06/02 06:09:21;;;;;;;11.03;7.45;;;;;;;24.07;55.33;100818.34;1748595;80;20213;-82
2022/06/02 06:12:17;;;;;;;11.15;7.30;;;;;;;24.06;55.17;100806.42;1772561;78;21814;-78
2022/06/02 06:15:06;;;;;;;14.23;7.03;;;;;;;24.08;55.12;100815.81;1749092;78;21032;-79
2022/06/02 06:18:10;;;;;;;13.13;6.80;;;;;;;24.11;55.04;100823.46;1773417;79;22254;-78
2022/06/02 06:21:22;;;;;;;9.28;6.30;;;;;;;24.12;54.96;100818.96;1776098;78;21104;-78
2022/06/02 06:24:06;;;;;;;16.27;6.15;;;;;;;24.12;54.90;100821.74;1779543;78;20982;-79
2022/06/02 06:26:40;;;;;;;12.55;6.55;;;;;;;24.15;54.86;100823.05;1731709;80;21123;-77
2022/06/02 06:29:49;;;;;;;10.78;6.62;;;;;;;24.16;54.79;100827.46;1737018;80;21018;-79
2022/06/02 06:32:57;;;;;;;9.40;6.03;;;;;;;24.16;54.78;100819.13;1780338;79;21128;-77
2022/06/02 06:35:51;;;;;;;9.10;6.58;;;;;;;24.17;54.73;100819.94;1766149;79;21137;-77
2022/06/02 06:38:32;;;;;;;11.43;7.15;;;;;;;24.17;54.71;100820.75;1768693;78;21045;-77
2022/06/02 06:41:19;;;;;;;10.25;5.97;;;;;;;24.18;54.66;100827.95;1775438;79;21170;-77
2022/06/02 06:44:09;;;;;;;9.73;7.03;;;;;;;24.20;54.68;100838.13;1779513;78;21048;-79
2022/06/02 06:46:46;;;;;;;14.78;7.60;;;;;;;24.22;54.67;100829.46;1776503;78;21056;-77
2022/06/02 06:49:24;;;;;;;13.72;6.95;;;;;;;24.23;54.63;100830.48;1775378;78;21104;-81
2022/06/02 06:52:14;;;;;;;18.67;7.15;;;;;;;24.25;54.68;100826.80;1767932;78;21794;-79
2022/06/02 06:55:13;;;;;;;23.67;7.47;;;;;;;24.28;54.72;100826.69;1763845;80;22440;-84
2022/06/02 06:58:06;;;;;;;14.13;6.67;;;;;;;24.30;54.83;100825.78;1757727;79;20993;-83
2022/06/02 07:01:05;;;;;;;17.42;7.12;;;;;;;24.31;54.88;100826.84;1760844;79;22241;-84
2022/06/02 07:04:10;;;;;;;18.98;7.05;;;;;;;24.32;54.94;100821.48;1751156;81;21601;-79
2022/06/02 07:07:11;;;;;;;13.18;6.37;;;;;;;24.34;55.05;100821.98;1761296;80;20985;-83
2022/06/02 07:10:04;;;;;;;12.75;6.42;;;;;;;24.35;55.08;100824.19;1758636;80;21221;-79
2022/06/02 07:12:54;;;;;;;14.30;5.50;;;;;;;24.36;55.08;100822.43;1755177;79;21030;-80
2022/06/02 07:15:41;;;;;;;17.52;6.17;;;;;;;24.36;55.04;100821.61;1755111;79;21056;-82
2022/06/02 07:18:45;;;;;;;15.40;6.00;;;;;;;24.38;55.01;100825.70;1757494;79;21034;-80
2022/06/02 07:21:51;;;;;;;16.62;6.03;;;;;;;24.40;55.08;100829.53;1754810;79;21601;-79
2022/06/02 07:24:58;;;;;;;10.78;5.15;;;;;;;24.41;55.07;100833.34;1766871;79;21333;-79
2022/06/02 07:27:48;;;;;;;10.75;5.95;;;;;;;24.43;55.05;100826.87;1765202;79;21150;-79
2022/06/02 07:30:52;;;;;;;13.68;6.83;;;;;;;24.44;55.01;100828.48;1764064;79;21071;-77
2022/06/02 07:33:47;;;;;;;14.45;7.10;;;;;;;24.45;55.01;100825.12;1767944;79;21529;-79
2022/06/02 07:36:48;;;;;;;11.63;6.45;;;;;;;24.45;55.01;100821.77;1771477;79;21042;-81
2022/06/02 07:39:38;;;;;;;11.73;8.00;;;;;;;24.46;54.99;100820.62;1769564;79;21035;-76
2022/06/02 07:42:31;;;;;;;10.20;7.30;;;;;;;24.46;54.98;100817.84;1695732;83;22536;-78
2022/06/02 07:45:38;;;;;;;14.45;8.23;;;;;;;24.47;54.91;100825.61;1767721;80;21086;-81
2022/06/02 07:48:34;;;;;;;12.40;9.10;;;;;;;24.46;54.81;100828.96;1765280;79;21065;-84
2022/06/02 07:51:31;;;;;;;13.20;9.65;;;;;;;24.46;54.71;100826.19;1771580;79;21599;-83
2022/06/02 07:54:31;;;;;;;13.35;8.55;;;;;;;24.46;54.76;100833.13;1770220;79;21420;-83
2022/06/02 07:57:27;;;;;;;18.50;8.45;;;;;;;24.47;54.80;100833.95;1762813;79;21148;-83
2022/06/02 08:00:13;;;;;;;11.90;6.62;;;;;;;24.48;54.79;100830.02;1759055;79;21096;-82
2022/06/02 08:02:52;;;;;;;14.63;7.55;;;;;;;24.49;54.72;100833.02;1768431;79;21048;-81
2022/06/02 08:05:56;;;;;;;17.98;7.62;;;;;;;24.50;54.75;100831.86;1772047;79;21087;-78
2022/06/02 08:09:04;;;;;;;12.47;7.17;;;;;;;24.51;54.74;100829.33;1743537;79;21837;-83
2022/06/02 08:12:05;;;;;;;12.00;6.92;;;;;;;24.52;54.70;100828.17;1757577;79;21093;-79
2022/06/02 08:14:43;;;;;;;20.15;7.92;;;;;;;24.53;54.72;100825.61;1774910;78;21072;-83
2022/06/02 08:17:23;;;;;;;10.43;7.47;;;;;;;24.53;54.74;100827.81;1738484;79;21662;-84
2022/06/02 08:20:18;;;;;;;14.85;9.53;;;;;;;24.55;54.74;100828.88;1762148;79;21138;-83
2022/06/02 08:23:09;;;;;;;11.95;9.35;;;;;;;24.55;54.70;100824.13;1770005;79;21208;-81
2022/06/02 08:25:55;;;;;;;11.38;7.85;;;;;;;24.56;54.63;100827.14;1763394;80;21043;-82
2022/06/02 08:28:27;;;;;;;16.57;8.58;;;;;;;24.57;54.60;100833.50;1774445;78;21106;-79
2022/06/02 08:31:31;;;;;;;12.28;8.13;;;;;;;24.59;54.63;100831.20;1773926;79;21196;-78
2022/06/02 08:34:17;;;;;;;9.78;7.58;;;;;;;24.60;54.62;100832.02;1770359;79;21037;-78
2022/06/02 08:37:18;;;;;;;10.85;7.75;;;;;;;24.61;54.56;100834.47;1771332;78;21671;-78
2022/06/02 08:40:20;;;;;;;11.35;7.00;;;;;;;24.61;54.54;100836.42;1757332;79;21325;-80
2022/06/02 08:43:24;;;;;;;12.73;6.90;;;;;;;24.62;54.50;100834.67;1752792;79;21424;-77
2022/06/02 08:46:07;;;;;;;21.23;7.67;;;;;;;24.63;54.62;100833.52;1775943;79;21064;-79
2022/06/02 08:49:27;;;;;;;22.27;9.78;;;;;;;24.65;54.79;100845.14;1768100;80;21088;-77
2022/06/02 08:52:34;;;;;;;18.45;8.08;;;;;;;24.68;54.97;100840.27;1748161;80;21969;-80
2022/06/02 08:55:22;;;;;;;19.73;7.55;;;;;;;24.71;55.23;100836.78;1757030;80;21056;-77
2022/06/02 08:58:11;;;;;;;18.23;7.72;;;;;;;24.75;55.36;100837.72;1751869;80;21068;-81
2022/06/02 09:01:15;;;;;;;16.23;7.58;;;;;;;24.80;55.42;100839.47;1734573;81;21047;-79
2022/06/02 09:03:58;;;;;;;15.95;6.45;;;;;;;24.83;55.51;100841.55;1692601;82;21047;-80
2022/06/02 09:06:58;;;;;;;12.63;6.90;;;;;;;24.86;55.10;100845.09;1722882;82;22604;-79
2022/06/02 09:10:09;;;;;;;15.83;6.90;;;;;;;24.87;54.81;100842.52;1733992;81;21004;-83
2022/06/02 09:12:59;;;;;;;18.92;7.00;;;;;;;24.89;54.66;100843.81;1732750;81;21135;-80
2022/06/02 09:15:50;;;;;;;12.00;6.90;;;;;;;24.88;54.51;100836.61;1643568;82;21073;-82
2022/06/02 09:18:56;;;;;;;13.65;6.67;;;;;;;24.89;54.41;100838.82;1726431;82;21589;-82
2022/06/02 09:21:46;;;;;;;14.98;7.15;;;;;;;24.88;54.49;100837.19;1722281;82;21487;-81
2022/06/02 09:24:49;;;;;;;11.55;6.70;;;;;;;24.88;54.38;100842.76;1716052;81;21122;-78
2022/06/02 09:28:06;;;;;;;12.53;7.42;;;;;;;24.86;54.31;100842.30;1681936;82;21621;-82
2022/06/02 09:31:05;;;;;;;10.43;6.50;;;;;;;24.87;54.19;100846.69;1672371;84;21156;-81
2022/06/02 09:34:09;;;;;;;9.18;5.92;;;;;;;24.87;54.08;100853.64;1627116;83;22408;-81
2022/06/02 09:37:15;;;;;;;8.85;6.50;;;;;;;24.88;53.96;100848.32;1717014;81;21266;-82
2022/06/02 09:40:28;;;;;;;7.42;5.95;;;;;;;24.89;54.14;100844.39;1730169;81;21151;-81
2022/06/02 09:43:12;;;;;;;8.23;5.85;;;;;;;24.90;54.22;100839.88;1731867;79;20990;-83
2022/06/02 09:46:22;;;;;;;11.38;6.67;;;;;;;24.91;54.22;100835.91;1744319;80;21637;-81
2022/06/02 09:49:14;;;;;;;12.33;6.78;;;;;;;24.94;54.19;100840.00;1689879;83;21710;-80
2022/06/02 09:51:48;;;;;;;11.80;6.87;;;;;;;24.95;54.04;100845.80;1718401;80;21184;-82
2022/06/02 09:54:33;;;;;;;14.85;6.87;;;;;;;24.95;54.03;100838.23;1765960;80;21003;-82
2022/06/02 09:57:55;;;;;;;10.53;6.28;;;;;;;24.98;54.04;100840.92;1775030;79;21050;-79
2022/06/02 10:00:53;;;;;;;12.90;6.85;;;;;;;25.03;53.99;100836.53;1776694;80;21412;-79
2022/06/02 10:03:35;;;;;;;13.72;6.92;;;;;;;25.08;53.82;100832.70;1774756;80;21054;-79
2022/06/02 10:06:10;;;;;;;10.25;6.75;;;;;;;25.11;53.68;100835.60;1769562;79;21650;-81
2022/06/02 10:09:01;;;;;;;11.25;6.65;;;;;;;25.14;53.60;100836.86;1758637;80;21020;-82
2022/06/02 10:11:52;;;;;;;11.93;6.97;;;;;;;25.16;53.61;100836.77;1804325;78;21083;-81
2022/06/02 10:14:27;;;;;;;12.33;6.70;;;;;;;25.16;53.52;100828.41;1790983;80;21624;-79
2022/06/02 10:17:15;;;;;;;13.18;7.10;;;;;;;25.15;53.44;100830.96;1789398;80;21076;-79
2022/06/02 10:20:08;;;;;;;13.22;7.20;;;;;;;25.14;53.38;100827.12;1773480;79;21500;-80
2022/06/02 10:23:26;;;;;;;12.37;7.05;;;;;;;25.12;53.51;100826.67;1738950;79;21345;-80
2022/06/02 10:26:39;;;;;;;10.32;6.50;;;;;;;25.10;53.48;100827.01;1782092;80;21059;-79
2022/06/02 10:29:50;;;;;;;12.28;7.62;;;;;;;25.08;53.40;100829.31;1771852;80;21120;-81
2022/06/02 10:32:53;;;;;;;9.80;7.42;;;;;;;25.09;53.29;100827.34;1757758;80;21594;-79
2022/06/02 10:36:07;;;;;;;12.55;7.65;;;;;;;25.06;53.33;100820.52;1755284;81;21811;-79
2022/06/02 10:38:59;;;;;;;10.68;7.20;;;;;;;25.04;53.32;100815.86;1759757;80;21544;-79
2022/06/02 10:41:44;;;;;;;11.60;7.05;;;;;;;25.02;53.37;100818.19;1791869;80;21119;-80
2022/06/02 10:44:15;;;;;;;9.23;7.22;;;;;;;25.03;53.32;100810.66;1774653;80;20994;-78
2022/06/02 10:47:37;;;;;;;11.38;7.00;;;;;;;25.03;53.31;100809.27;1781122;80;21157;-79
2022/06/02 10:50:34;;;;;;;12.73;7.10;;;;;;;25.03;53.31;100808.69;1780566;80;21175;-80
2022/06/02 10:53:35;;;;;;;12.45;6.55;;;;;;;25.00;53.20;100806.58;1759063;79;21047;-80
2022/06/02 10:56:20;;;;;;;13.58;6.80;;;;;;;25.01;53.17;100806.24;1764112;79;21089;-79
2022/06/02 10:59:24;;;;;;;12.05;6.90;;;;;;;25.05;53.07;100809.72;1777579;79;21611;-79
2022/06/02 11:02:29;;;;;;;15.98;6.60;;;;;;;25.08;53.15;100806.26;1761034;79;21114;-83
2022/06/02 11:05:37;;;;;;;11.33;6.60;;;;;;;25.10;53.10;100803.34;1772445;80;21071;-77
2022/06/02 11:08:47;;;;;;;9.15;5.75;;;;;;;25.14;53.12;100802.06;1776869;79;21074;-78
2022/06/02 11:11:45;;;;;;;7.87;5.83;;;;;;;25.17;52.98;100795.79;1773861;79;21592;-78
2022/06/02 11:14:20;;;;;;;13.00;6.12;;;;;;;25.18;52.94;100789.06;1770784;79;21045;-78
2022/06/02 11:17:11;;;;;;;13.95;5.95;;;;;;;25.17;53.05;100791.03;1764863;78;21050;-78
2022/06/02 11:20:15;;;;;;;13.10;6.58;;;;;;;25.16;52.98;100793.61;1769703;79;21422;-78
2022/06/02 11:23:19;;;;;;;8.03;6.08;;;;;;;25.14;52.86;100780.61;1781159;79;21051;-78
2022/06/02 11:26:24;;;;;;;9.00;5.77;;;;;;;25.16;52.75;100776.09;1773480;80;21593;-79
2022/06/02 11:29:02;;;;;;;9.08;5.80;;;;;;;25.15;52.50;100776.67;1781484;79;21106;-78
2022/06/02 11:31:46;;;;;;;9.03;6.42;;;;;;;25.15;52.37;100772.49;1777943;78;21036;-79
2022/06/02 11:35:02;;;;;;;10.63;6.25;;;;;;;25.16;52.37;100766.34;1783595;79;21143;-77
2022/06/02 11:38:16;;;;;;;7.97;6.03;;;;;;;25.15;52.31;100771.10;1788088;79;21054;-78
2022/06/02 11:41:18;;;;;;;10.58;6.35;;;;;;;25.14;52.08;100768.66;1782562;78;21068;-79
2022/06/02 11:44:15;;;;;;;11.85;6.22;;;;;;;25.13;51.89;100758.09;1779231;79;21051;-79
2022/06/02 11:47:26;;;;;;;9.93;6.62;;;;;;;25.14;51.80;100758.33;1755915;79;21504;-80
2022/06/02 11:50:24;;;;;;;9.33;6.12;;;;;;;25.13;51.59;100758.09;1767866;80;21294;-80
2022/06/02 11:53:35;;;;;;;10.20;6.30;;;;;;;25.13;51.62;100756.70;1770181;79;21065;-80
2022/06/02 11:56:45;;;;;;;15.65;5.97;;;;;;;25.17;51.63;100754.03;1780838;79;21026;-79
2022/06/02 12:00:06;;;;;;;11.05;6.20;;;;;;;25.19;51.67;100748.94;1747466;79;21081;-79
2022/06/02 12:03:23;;;;;;;11.38;6.45;;;;;;;25.23;51.55;100744.28;1761650;79;21108;-80
2022/06/02 12:05:58;;;;;;;14.93;6.92;;;;;;;25.28;51.69;100744.05;1729552;82;22016;-79
2022/06/02 12:09:10;;;;;;;15.13;6.10;;;;;;;25.32;51.56;100745.78;1703631;82;21430;-76
2022/06/02 12:12:09;;;;;;;9.80;5.92;;;;;;;25.34;51.39;100744.84;1732766;81;21126;-78
2022/06/02 12:15:20;;;;;;;10.45;5.65;;;;;;;25.34;51.12;100737.88;1727168;81;21119;-78
2022/06/02 12:18:26;;;;;;;9.88;6.15;;;;;;;25.35;50.91;100734.51;1720083;81;21111;-78
2022/06/02 12:21:20;;;;;;;6.85;5.17;;;;;;;25.33;50.92;100736.24;1719519;81;21307;-79
2022/06/02 12:24:01;;;;;;;9.35;4.62;;;;;;;25.32;50.62;100723.50;1716155;81;21116;-78
2022/06/02 12:26:45;;;;;;;11.08;5.20;;;;;;;25.33;50.34;100725.71;1712934;81;21493;-77
2022/06/02 12:29:29;;;;;;;8.78;4.80;;;;;;;25.34;50.03;100727.31;1731259;81;21349;-77
2022/06/02 12:32:35;;;;;;;9.43;5.12;;;;;;;25.33;49.84;100716.75;1714573;81;21649;-77
2022/06/02 12:35:22;;;;;;;8.15;5.20;;;;;;;25.33;49.67;100717.36;1716424;81;21580;-79
2022/06/02 12:38:26;;;;;;;12.28;5.67;;;;;;;25.32;49.66;100715.15;1717944;81;21071;-78
2022/06/02 12:41:38;;;;;;;9.75;4.87;;;;;;;25.30;49.94;100708.30;1696043;82;21068;-78
2022/06/02 12:44:25;;;;;;;9.15;5.42;;;;;;;25.28;50.21;100709.24;1705699;81;21221;-77
2022/06/02 12:47:28;;;;;;;13.10;5.17;;;;;;;25.27;50.42;100697.87;1712664;81;21143;-80
2022/06/02 12:50:30;;;;;;;6.35;4.55;;;;;;;25.26;50.59;100696.23;1690286;83;21461;-79
2022/06/02 12:53:25;;;;;;;10.70;5.37;;;;;;;25.25;50.41;100696.03;1719085;81;21106;-81
2022/06/02 12:56:06;;;;;;;8.85;5.22;;;;;;;25.25;50.60;100696.81;1731345;80;21046;-78
2022/06/02 12:59:30;;;;;;;13.48;5.95;;;;;;;25.30;50.52;100690.19;1714017;81;21099;-79
2022/06/02 13:02:29;;;;;;;11.28;5.50;;;;;;;25.36;50.25;100686.83;1694899;82;21084;-78
2022/06/02 13:05:28;;;;;;;11.22;5.58;;;;;;;25.43;49.95;100682.03;1687848;82;21567;-78
2022/06/02 13:08:29;;;;;;;10.93;5.87;;;;;;;25.48;49.61;100685.39;1709521;82;21053;-79
2022/06/02 13:11:24;;;;;;;16.30;6.42;;;;;;;25.54;49.24;100685.17;1740484;79;21180;-78
2022/06/02 13:13:56;;;;;;;13.55;6.83;;;;;;;25.56;49.04;100683.64;1762592;79;21598;-79
2022/06/02 13:16:51;;;;;;;11.05;5.92;;;;;;;25.55;48.95;100680.63;1781454;80;21536;-79
2022/06/02 13:19:49;;;;;;;12.78;6.03;;;;;;;25.54;48.99;100685.17;1762580;79;21407;-78
2022/06/02 13:22:41;;;;;;;8.95;5.20;;;;;;;25.50;49.21;100682.84;1754176;80;21538;-79
2022/06/02 13:25:40;;;;;;;11.43;5.12;;;;;;;25.48;49.46;100682.60;1771010;80;21081;-79
2022/06/02 13:28:47;;;;;;;14.05;6.55;;;;;;;25.45;49.67;100679.14;1758546;80;21535;-79